Time;durP1;ratioP1;P1;durP2;ratioP2;P2;SDS_P1;SDS_P2;PMS_P1;PMS_P2;Temp;Humidity;BMP_temperature;BMP_pressure;BME280_temperature;BME280_humidity;BME280_pressure;Samples;Min_cycle;Max_cycle;Signal;HPM_P1;HPM_P2
2022/08/31 00:03:59;;;;;;;0.00;0.00;;;;;;;19.01;57.55;102297.53;5077262;28;20044;-84
2022/08/31 00:06:26;;;;;;;0.00;0.00;;;;;;;19.00;57.36;102301.16;5075456;28;20036;-84
2022/08/31 00:08:52;;;;;;;0.10;0.10;;;;;;;18.95;57.75;102297.75;5071933;28;20511;-84
2022/08/31 00:11:26;;;;;;;0.00;0.00;;;;;;;18.94;57.41;102290.63;5071268;28;20054;-84
2022/08/31 00:13:54;;;;;;;0.10;0.10;;;;;;;18.91;58.00;102302.31;5071131;28;20028;-84
2022/08/31 00:16:21;;;;;;;0.10;0.10;;;;;;;18.88;58.04;102301.53;5072516;28;20534;-84
2022/08/31 00:18:51;;;;;;;0.10;0.10;;;;;;;18.89;57.75;102297.91;5071087;28;20119;-84
2022/08/31 00:21:19;;;;;;;1.00;1.00;;;;;;;18.88;57.27;102299.72;5073925;28;20112;-84
2022/08/31 00:23:46;;;;;;;0.20;0.20;;;;;;;18.86;57.84;102298.00;5072445;28;20029;-84
2022/08/31 00:26:13;;;;;;;0.10;0.10;;;;;;;18.85;58.18;102301.63;5075354;28;20036;-84
2022/08/31 00:28:39;;;;;;;0.10;0.10;;;;;;;18.82;57.94;102296.38;5075770;28;20029;-84
2022/08/31 00:31:05;;;;;;;0.10;0.10;;;;;;;18.80;57.86;102298.22;5069671;28;20033;-84
2022/08/31 00:33:31;;;;;;;0.05;0.05;;;;;;;18.78;57.99;102294.69;5074685;28;20024;-85
2022/08/31 00:35:58;;;;;;;0.00;0.00;;;;;;;18.73;58.16;102297.53;5075042;28;20028;-84
2022/08/31 00:38:24;;;;;;;0.00;0.00;;;;;;;18.71;57.76;102294.00;5073707;28;20034;-84
2022/08/31 00:40:50;;;;;;;0.25;0.25;;;;;;;18.69;57.66;102303.91;5068706;28;20056;-84
2022/08/31 00:43:38;;;;;;;0.00;0.00;;;;;;;18.73;57.40;102297.53;5075273;28;20069;-84
2022/08/31 00:46:05;;;;;;;0.10;0.10;;;;;;;18.64;57.71;102304.06;5079700;28;20115;-84
2022/08/31 00:48:32;;;;;;;0.10;0.10;;;;;;;18.61;57.85;102293.41;5075960;28;20081;-84
2022/08/31 00:50:59;;;;;;;0.10;0.10;;;;;;;18.57;58.37;102294.44;5075993;28;20035;-84
2022/08/31 00:53:26;;;;;;;0.10;0.10;;;;;;;18.57;57.61;102291.75;5078469;28;20035;-84
2022/08/31 00:55:53;;;;;;;0.40;0.40;;;;;;;18.52;57.94;102297.25;5076009;28;20029;-85
2022/08/31 00:58:20;;;;;;;0.10;0.10;;;;;;;18.49;57.99;102293.78;5078378;28;20047;-84
2022/08/31 01:00:47;;;;;;;0.00;0.00;;;;;;;18.48;57.86;102297.38;5076489;28;20033;-84
2022/08/31 01:03:14;;;;;;;0.00;0.00;;;;;;;18.47;57.94;102301.00;5072806;28;20043;-84
2022/08/31 01:05:41;;;;;;;0.10;0.10;;;;;;;18.45;58.24;102308.22;5073682;28;20080;-85
2022/08/31 01:08:07;;;;;;;0.10;0.10;;;;;;;18.37;58.06;102306.66;5072357;28;20090;-84
2022/08/31 01:10:39;;;;;;;0.10;0.10;;;;;;;18.37;58.50;102311.16;5074203;28;20051;-84
2022/08/31 01:13:06;;;;;;;0.05;0.05;;;;;;;18.31;58.65;102312.19;5069020;28;20522;-84
2022/08/31 01:15:33;;;;;;;0.10;0.10;;;;;;;18.29;58.71;102314.03;5067467;28;20533;-84
2022/08/31 01:18:02;;;;;;;0.10;0.10;;;;;;;18.27;58.58;102305.16;5066868;28;20467;-84
2022/08/31 01:20:45;;;;;;;0.03;0.03;;;;;;;18.28;58.60;102306.94;5065545;28;20531;-84
2022/08/31 01:23:18;;;;;;;0.10;0.10;;;;;;;18.26;58.47;102311.44;5068464;28;20097;-84
2022/08/31 01:25:47;;;;;;;0.10;0.10;;;;;;;18.22;58.65;102307.97;5061128;28;20635;-84
2022/08/31 01:28:14;;;;;;;0.10;0.10;;;;;;;18.19;58.64;102307.19;5065692;28;20041;-84
2022/08/31 01:30:42;;;;;;;0.10;0.10;;;;;;;18.21;58.56;102305.34;5068757;28;20063;-84
2022/08/31 01:33:10;;;;;;;0.10;0.10;;;;;;;18.19;58.79;102304.50;5065954;28;20029;-84
2022/08/31 01:35:36;;;;;;;0.10;0.10;;;;;;;18.18;58.70;102306.31;5066179;28;20039;-84
2022/08/31 01:38:03;;;;;;;0.05;0.05;;;;;;;18.16;58.79;102308.16;5064767;28;20029;-84
2022/08/31 01:40:48;;;;;;;0.10;0.10;;;;;;;18.20;58.93;102314.31;5063135;28;20048;-84
2022/08/31 01:43:14;;;;;;;0.10;0.10;;;;;;;18.13;58.67;102315.41;5061014;28;20389;-84
2022/08/31 01:45:41;;;;;;;0.10;0.10;;;;;;;18.09;58.93;102322.66;5065180;28;20039;-85
2022/08/31 01:48:07;;;;;;;0.00;0.00;;;;;;;18.07;58.37;102314.66;5060801;28;20036;-84
2022/08/31 01:50:34;;;;;;;0.10;0.10;;;;;;;18.06;58.68;102317.38;5072053;28;20056;-84
2022/08/31 01:53:00;;;;;;;0.00;0.00;;;;;;;18.03;59.19;102314.78;5066136;28;20028;-84
2022/08/31 01:55:26;;;;;;;0.20;0.20;;;;;;;17.99;58.81;102308.59;5068169;28;20088;-84
2022/08/31 01:57:52;;;;;;;0.10;0.10;;;;;;;17.96;58.36;102306.03;5070052;28;20044;-84
2022/08/31 02:00:19;;;;;;;0.10;0.10;;;;;;;17.92;58.95;102304.31;5066868;28;20050;-85
2022/08/31 02:02:45;;;;;;;0.10;0.10;;;;;;;17.91;58.72;102306.13;5063730;28;20443;-84
2022/08/31 02:05:13;;;;;;;0.10;0.10;;;;;;;17.90;58.63;102308.84;5066698;28;20037;-84
2022/08/31 02:07:41;;;;;;;0.10;0.10;;;;;;;17.88;58.53;102310.69;5063575;28;20031;-85
2022/08/31 02:10:08;;;;;;;0.10;0.10;;;;;;;17.87;58.84;102314.28;5063247;28;20037;-84
2022/08/31 02:12:34;;;;;;;0.10;0.10;;;;;;;17.83;59.14;102307.25;5058993;28;20236;-84
2022/08/31 02:15:00;;;;;;;0.10;0.10;;;;;;;17.79;58.86;102298.41;5072446;28;20090;-84
2022/08/31 02:17:26;;;;;;;0.10;0.10;;;;;;;17.78;59.30;102304.69;5073616;28;20032;-84
2022/08/31 02:19:52;;;;;;;0.10;0.10;;;;;;;17.75;58.69;102307.47;5076121;28;20043;-84
2022/08/31 02:22:18;;;;;;;0.10;0.10;;;;;;;17.71;58.80;102306.66;5074029;28;20040;-84
2022/08/31 02:24:45;;;;;;;0.10;0.10;;;;;;;17.70;58.81;102307.56;5075201;28;20036;-85
2022/08/31 02:27:11;;;;;;;0.10;0.10;;;;;;;17.68;58.69;102309.41;5076265;28;20038;-83
2022/08/31 02:29:38;;;;;;;0.10;0.10;;;;;;;17.64;59.56;102302.38;5073790;28;20043;-84
2022/08/31 02:32:04;;;;;;;0.10;0.10;;;;;;;17.64;59.17;102310.41;5072959;28;20032;-83
2022/08/31 02:34:31;;;;;;;0.10;0.10;;;;;;;17.63;58.99;102301.50;5074816;28;20066;-84
2022/08/31 02:36:57;;;;;;;0.10;0.10;;;;;;;17.62;58.98;102301.56;5077713;28;20044;-84
2022/08/31 02:39:24;;;;;;;0.10;0.10;;;;;;;17.60;58.96;102298.88;5073208;28;20078;-84
2022/08/31 02:41:50;;;;;;;0.10;0.10;;;;;;;17.59;59.19;102307.84;5074553;28;20028;-84
2022/08/31 02:44:17;;;;;;;0.10;0.10;;;;;;;17.55;59.41;102299.94;5075656;28;20142;-84
2022/08/31 02:46:43;;;;;;;0.10;0.10;;;;;;;17.54;59.03;102308.91;5074721;28;20424;-84
2022/08/31 02:49:09;;;;;;;0.10;0.10;;;;;;;17.53;58.82;102304.47;5070589;28;20377;-84
2022/08/31 02:51:40;;;;;;;0.10;0.10;;;;;;;17.54;59.06;102300.88;5071569;28;20115;-84
2022/08/31 02:54:06;;;;;;;0.10;0.10;;;;;;;17.50;59.36;102301.88;5074646;28;20115;-84
2022/08/31 02:56:32;;;;;;;0.10;0.10;;;;;;;17.49;59.25;102300.97;5075407;28;20032;-85
2022/08/31 02:58:58;;;;;;;0.08;0.08;;;;;;;17.46;59.58;102301.06;5070059;28;20532;-85
2022/08/31 03:01:25;;;;;;;0.20;0.20;;;;;;;17.48;59.27;102309.94;5073176;28;20036;-84
2022/08/31 03:03:52;;;;;;;0.13;0.13;;;;;;;17.48;59.31;102314.41;5076916;28;20403;-84
2022/08/31 03:06:19;;;;;;;0.10;0.10;;;;;;;17.46;58.96;102315.34;5072856;28;20042;-84
2022/08/31 03:08:46;;;;;;;0.30;0.30;;;;;;;17.43;59.62;102317.22;5073836;28;20032;-84
2022/08/31 03:11:12;;;;;;;0.15;0.15;;;;;;;17.45;59.12;102316.25;5066767;28;20033;-84
2022/08/31 03:13:40;;;;;;;0.10;0.10;;;;;;;17.46;58.98;102318.00;5067346;28;20025;-84
2022/08/31 03:16:06;;;;;;;0.10;0.10;;;;;;;17.45;59.09;102305.53;5077450;28;20033;-84
2022/08/31 03:18:32;;;;;;;0.10;0.10;;;;;;;17.45;59.35;102308.22;5072219;28;20035;-84
2022/08/31 03:20:59;;;;;;;0.10;0.10;;;;;;;17.43;59.29;102312.75;5074632;28;20028;-84
2022/08/31 03:23:25;;;;;;;0.47;0.32;;;;;;;17.42;59.49;102318.13;5075165;28;20028;-84
2022/08/31 03:25:51;;;;;;;0.00;0.00;;;;;;;17.40;59.56;102314.63;5072716;28;20037;-84
2022/08/31 03:28:17;;;;;;;0.10;0.10;;;;;;;17.37;59.25;102315.59;5074493;28;20040;-84
2022/08/31 03:30:43;;;;;;;0.10;0.10;;;;;;;17.35;59.30;102314.72;5076024;28;20040;-84
2022/08/31 03:33:10;;;;;;;0.10;0.10;;;;;;;17.35;59.26;102317.41;5073840;28;20025;-84
2022/08/31 03:35:36;;;;;;;0.10;0.10;;;;;;;17.33;58.93;102316.56;5072902;28;20151;-84
2022/08/31 03:38:04;;;;;;;0.10;0.10;;;;;;;17.30;59.26;102311.28;5074088;28;20032;-85
2022/08/31 03:40:30;;;;;;;0.10;0.10;;;;;;;17.31;59.34;102313.06;5072229;28;20035;-84
2022/08/31 03:42:57;;;;;;;0.08;0.08;;;;;;;17.30;58.83;102327.38;5067461;28;20444;-85
2022/08/31 03:45:24;;;;;;;0.03;0.03;;;;;;;17.28;59.29;102319.38;5078671;28;20539;-84
2022/08/31 03:47:50;;;;;;;0.75;0.75;;;;;;;17.27;59.12;102319.38;5068474;28;20040;-84
2022/08/31 03:50:16;;;;;;;0.10;0.10;;;;;;;17.26;59.00;102313.16;5071635;28;20036;-83
2022/08/31 03:52:42;;;;;;;0.38;0.38;;;;;;;17.24;59.19;102316.78;5070095;28;20024;-83
2022/08/31 03:55:09;;;;;;;0.10;0.10;;;;;;;17.18;59.16;102316.94;5077439;28;20344;-84
2022/08/31 03:57:36;;;;;;;0.10;0.10;;;;;;;17.10;59.87;102323.34;5074301;28;20495;-84
2022/08/31 04:00:04;;;;;;;0.10;0.10;;;;;;;17.04;59.51;102320.81;5068229;28;20040;-84
2022/08/31 04:02:30;;;;;;;0.10;0.10;;;;;;;17.04;59.58;102330.66;5075018;28;20063;-83
2022/08/31 04:04:56;;;;;;;0.10;0.10;;;;;;;17.09;59.65;102329.63;5078431;28;20037;-84
2022/08/31 04:07:22;;;;;;;0.10;0.10;;;;;;;17.13;59.17;102325.97;5072746;28;20021;-85
2022/08/31 04:09:49;;;;;;;0.10;0.10;;;;;;;17.04;59.65;102325.31;5073489;28;20028;-84
2022/08/31 04:12:17;;;;;;;0.10;0.10;;;;;;;17.00;59.81;102324.50;5076053;28;20043;-85
2022/08/31 04:14:43;;;;;;;0.35;0.35;;;;;;;17.02;59.53;102328.00;5075848;28;20024;-84
2022/08/31 04:17:10;;;;;;;0.10;0.10;;;;;;;17.02;59.32;102332.50;5074013;28;20040;-84
2022/08/31 04:19:39;;;;;;;0.10;0.10;;;;;;;17.01;59.16;102334.31;5078737;28;20047;-84
2022/08/31 04:22:05;;;;;;;0.10;0.10;;;;;;;16.98;59.81;102326.31;5072951;28;20028;-84
2022/08/31 04:24:31;;;;;;;0.10;0.10;;;;;;;16.95;59.35;102326.41;5076701;28;20412;-84
2022/08/31 04:26:57;;;;;;;0.10;0.10;;;;;;;16.95;59.45;102331.75;5074721;28;20035;-84
2022/08/31 04:29:23;;;;;;;0.45;0.30;;;;;;;16.95;59.45;102339.78;5073984;28;20036;-84
2022/08/31 04:31:49;;;;;;;0.10;0.10;;;;;;;16.91;59.74;102330.94;5072087;28;20480;-84
2022/08/31 04:34:15;;;;;;;0.10;0.10;;;;;;;16.90;59.79;102334.50;5080299;28;20495;-83
2022/08/31 04:36:44;;;;;;;0.10;0.10;;;;;;;16.92;59.34;102338.06;5065335;28;20111;-84
2022/08/31 04:39:11;;;;;;;0.10;0.10;;;;;;;16.91;59.61;102338.03;5073160;28;20025;-84
2022/08/31 04:41:39;;;;;;;0.00;0.00;;;;;;;16.88;59.73;102339.00;5075099;28;20028;-84
2022/08/31 04:44:06;;;;;;;0.10;0.10;;;;;;;16.88;59.72;102338.13;5068005;28;20439;-84
2022/08/31 04:46:34;;;;;;;0.10;0.10;;;;;;;16.84;59.64;102339.13;5075411;28;20116;-84
2022/08/31 04:49:01;;;;;;;0.10;0.10;;;;;;;16.81;59.40;102351.66;5075486;28;20087;-84
2022/08/31 04:51:30;;;;;;;0.10;0.10;;;;;;;16.83;59.77;102351.59;5072605;28;20028;-84
2022/08/31 04:53:57;;;;;;;0.20;0.20;;;;;;;16.82;59.69;102337.34;5068234;28;20511;-84
2022/08/31 04:56:27;;;;;;;0.10;0.10;;;;;;;16.81;60.13;102354.34;5068637;28;20031;-84
2022/08/31 04:58:57;;;;;;;0.10;0.10;;;;;;;16.79;59.85;102350.78;5080527;28;20025;-85
2022/08/31 05:01:25;;;;;;;0.10;0.10;;;;;;;16.77;59.70;102355.31;5071167;28;20016;-84
2022/08/31 05:03:52;;;;;;;0.10;0.10;;;;;;;16.76;59.36;102358.91;5076916;28;21184;-84
2022/08/31 05:06:22;;;;;;;0.68;0.68;;;;;;;16.75;59.18;102357.13;5071285;28;20043;-84
2022/08/31 05:08:53;;;;;;;0.10;0.10;;;;;;;16.75;59.23;102357.13;5078384;28;20032;-85
2022/08/31 05:11:20;;;;;;;0.10;0.10;;;;;;;16.73;59.09;102358.97;5071109;28;20037;-84
2022/08/31 05:13:47;;;;;;;0.25;0.25;;;;;;;16.73;59.27;102364.31;5076004;28;20045;-84
2022/08/31 05:16:15;;;;;;;0.10;0.10;;;;;;;16.74;59.09;102367.88;5072818;28;20617;-84
2022/08/31 05:18:43;;;;;;;0.08;0.08;;;;;;;16.74;58.95;102368.75;5072571;28;20025;-84
2022/08/31 05:21:28;;;;;;;0.10;0.10;;;;;;;16.81;58.47;102367.72;5072257;28;20040;-83
2022/08/31 05:23:57;;;;;;;0.10;0.10;;;;;;;16.76;58.65;102368.72;5069163;28;20024;-84
2022/08/31 05:26:28;;;;;;;0.52;0.52;;;;;;;16.77;58.45;102366.03;5069896;28;20034;-84
2022/08/31 05:28:56;;;;;;;0.20;0.20;;;;;;;16.73;58.23;102366.13;5069914;28;20040;-84
2022/08/31 05:31:22;;;;;;;0.03;0.03;;;;;;;16.74;58.02;102366.06;5072911;28;20028;-84
2022/08/31 05:33:49;;;;;;;0.10;0.10;;;;;;;16.75;58.21;102373.19;5067364;28;20024;-84
2022/08/31 05:36:16;;;;;;;0.10;0.10;;;;;;;16.70;57.69;102375.09;5068859;28;20025;-84
2022/08/31 05:38:42;;;;;;;0.13;0.13;;;;;;;16.74;58.01;102373.25;5067801;28;20033;-84
2022/08/31 05:41:09;;;;;;;0.00;0.00;;;;;;;16.76;58.08;102369.63;5076349;28;20047;-84
2022/08/31 05:43:37;;;;;;;0.10;0.10;;;;;;;16.76;57.89;102372.28;5071306;28;20056;-86
2022/08/31 05:46:07;;;;;;;0.00;0.00;;;;;;;16.83;57.49;102370.34;5074169;28;20074;-84
2022/08/31 05:48:35;;;;;;;0.00;0.00;;;;;;;16.79;57.07;102372.22;5075923;28;20028;-84
2022/08/31 05:51:03;;;;;;;0.20;0.20;;;;;;;16.77;56.89;102370.47;5079420;28;20120;-85
2022/08/31 05:53:30;;;;;;;0.10;0.10;;;;;;;16.82;56.59;102374.84;5080243;28;20589;-83
2022/08/31 05:56:15;;;;;;;0.20;0.20;;;;;;;16.90;56.68;102371.13;5072248;28;20166;-84
2022/08/31 05:58:43;;;;;;;0.10;0.10;;;;;;;16.87;56.58;102379.19;5077299;28;20096;-83
2022/08/31 06:01:31;;;;;;;0.00;0.00;;;;;;;16.92;56.04;102380.00;5072620;28;20036;-83
2022/08/31 06:03:58;;;;;;;0.10;0.10;;;;;;;16.84;56.15;102376.59;5074900;28;20400;-83
2022/08/31 06:06:25;;;;;;;0.10;0.10;;;;;;;16.89;56.45;102370.22;5068137;28;20351;-83
2022/08/31 06:08:51;;;;;;;0.10;0.10;;;;;;;16.89;56.61;102374.69;5070218;28;20419;-83
2022/08/31 06:11:20;;;;;;;0.10;0.10;;;;;;;16.90;55.96;102373.78;5072901;28;20111;-83
2022/08/31 06:13:50;;;;;;;0.10;0.10;;;;;;;16.94;55.79;102375.50;5073110;28;20029;-83
2022/08/31 06:16:17;;;;;;;0.03;0.03;;;;;;;16.96;55.50;102371.88;5077011;28;20078;-83
2022/08/31 06:18:49;;;;;;;0.20;0.20;;;;;;;16.95;55.18;102370.13;5075886;28;20028;-83
2022/08/31 06:21:17;;;;;;;0.10;0.10;;;;;;;16.99;55.29;102370.94;5075792;28;20028;-84
2022/08/31 06:23:43;;;;;;;0.00;0.00;;;;;;;17.05;55.19;102364.56;5076847;28;20024;-83
2022/08/31 06:26:14;;;;;;;0.10;0.10;;;;;;;17.13;55.75;102368.81;5077090;28;20044;-83
2022/08/31 06:28:42;;;;;;;0.10;0.10;;;;;;;17.17;55.44;102374.09;5076823;28;20498;-83
2022/08/31 06:31:18;;;;;;;0.05;0.05;;;;;;;17.25;55.44;102377.50;5076281;28;20526;-83
2022/08/31 06:33:46;;;;;;;0.10;0.10;;;;;;;17.23;55.05;102371.28;5075254;28;20408;-83
2022/08/31 06:36:14;;;;;;;0.10;0.10;;;;;;;17.27;54.97;102376.53;5075522;28;20024;-83
2022/08/31 06:38:42;;;;;;;0.10;0.10;;;;;;;17.33;54.87;102378.16;5071782;28;20496;-83
2022/08/31 06:41:20;;;;;;;0.10;0.10;;;;;;;17.38;55.16;102384.28;5075342;28;20028;-83
2022/08/31 06:43:46;;;;;;;0.10;0.10;;;;;;;17.41;55.03;102376.19;5068505;28;20024;-83
2022/08/31 06:46:14;;;;;;;0.10;0.10;;;;;;;17.45;55.25;102379.69;5058198;28;20037;-83
2022/08/31 06:48:40;;;;;;;0.30;0.30;;;;;;;17.51;55.13;102378.63;5059587;28;20026;-81
2022/08/31 06:51:07;;;;;;;0.10;0.10;;;;;;;17.49;54.54;102375.13;5061022;28;20116;-82
2022/08/31 06:53:35;;;;;;;0.10;0.10;;;;;;;17.59;54.82;102382.03;5076090;28;20024;-82
2022/08/31 06:56:12;;;;;;;0.10;0.10;;;;;;;17.69;54.40;102386.22;5075598;28;20032;-82
2022/08/31 06:58:39;;;;;;;0.10;0.10;;;;;;;17.69;54.66;102386.22;5072517;28;20105;-82
2022/08/31 07:01:10;;;;;;;0.10;0.10;;;;;;;17.78;54.41;102391.38;5072646;28;20498;-82
2022/08/31 07:03:38;;;;;;;0.10;0.10;;;;;;;17.84;54.63;102389.44;5073016;28;20028;-82
2022/08/31 07:06:07;;;;;;;0.10;0.10;;;;;;;17.92;54.67;102392.81;5076544;28;20036;-82
2022/08/31 07:08:34;;;;;;;0.10;0.10;;;;;;;17.93;54.30;102405.28;5073132;28;20028;-82
2022/08/31 07:11:01;;;;;;;0.10;0.10;;;;;;;18.00;53.91;102398.88;5067332;28;20096;-82
2022/08/31 07:13:28;;;;;;;0.10;0.10;;;;;;;18.10;53.65;102402.19;5071293;28;20020;-82
2022/08/31 07:16:05;;;;;;;0.10;0.10;;;;;;;18.20;53.14;102406.38;5074388;28;20082;-82
2022/08/31 07:18:32;;;;;;;0.00;0.00;;;;;;;18.28;53.17;102403.50;5073998;28;20107;-82
2022/08/31 07:23:50;;;;;;;0.10;0.10;;;;;;;18.41;53.51;102410.28;5103132;27;1259807;-76
2022/08/31 07:26:23;;;;;;;0.10;0.10;;;;;;;18.52;53.29;102412.66;5135002;27;20059;-76
2022/08/31 07:28:51;;;;;;;0.10;0.10;;;;;;;18.56;53.19;102411.66;5135366;27;20458;-77
2022/08/31 07:31:21;;;;;;;0.10;0.10;;;;;;;18.66;53.07;102404.22;5141075;27;20019;-77
2022/08/31 07:33:49;;;;;;;0.10;0.10;;;;;;;18.69;52.24;102409.50;5132627;27;20028;-77
2022/08/31 07:36:16;;;;;;;0.10;0.10;;;;;;;18.76;52.28;102411.06;5130934;27;20110;-77
2022/08/31 07:44:17;;;;;;;0.10;0.10;;;;;;;19.01;51.77;102410.34;5135492;27;20404;-78
2022/08/31 07:46:44;;;;;;;0.30;0.30;;;;;;;19.05;51.97;102412.03;5129463;27;20023;-78
2022/08/31 07:49:12;;;;;;;0.10;0.10;;;;;;;19.17;51.66;102409.91;5130193;27;20062;-77
2022/08/31 07:51:45;;;;;;;0.10;0.10;;;;;;;19.28;51.33;102407.75;5132963;27;20035;-77
2022/08/31 07:54:12;;;;;;;0.10;0.10;;;;;;;19.35;51.42;102403.94;5129276;27;20043;-77
2022/08/31 07:56:41;;;;;;;0.13;0.13;;;;;;;19.37;50.37;102401.22;5131620;27;20046;-78
2022/08/31 07:59:09;;;;;;;0.00;0.00;;;;;;;19.51;51.17;102400.75;5130066;27;20034;-77
2022/08/31 08:01:36;;;;;;;0.00;0.00;;;;;;;19.47;49.99;102402.66;5132253;27;20050;-78
2022/08/31 08:04:05;;;;;;;0.10;0.10;;;;;;;19.63;50.70;102405.72;5128204;27;20107;-78
2022/08/31 08:06:31;;;;;;;0.10;0.10;;;;;;;19.72;50.81;102407.22;5133052;27;20024;-78
2022/08/31 08:09:05;;;;;;;0.10;0.10;;;;;;;19.83;50.96;102406.91;5142057;27;20031;-78
2022/08/31 08:11:35;;;;;;;0.10;0.10;;;;;;;19.96;50.65;102405.56;5134993;27;20019;-78
2022/08/31 08:14:03;;;;;;;0.10;0.10;;;;;;;20.12;50.95;102405.00;5144518;27;20038;-78
2022/08/31 08:16:29;;;;;;;0.10;0.10;;;;;;;20.23;51.07;102408.19;5145078;27;20424;-78
2022/08/31 08:18:55;;;;;;;0.10;0.10;;;;;;;20.33;50.87;102403.34;5137757;27;20038;-78
2022/08/31 08:21:22;;;;;;;0.10;0.10;;;;;;;20.33;50.86;102409.59;5135960;27;20373;-78
2022/08/31 08:23:48;;;;;;;0.13;0.13;;;;;;;20.53;50.07;102410.69;5118072;28;20024;-78
2022/08/31 08:26:14;;;;;;;0.10;0.10;;;;;;;20.59;48.48;102409.59;5130298;27;20019;-78
2022/08/31 08:28:40;;;;;;;0.10;0.10;;;;;;;20.69;49.64;102401.09;5130945;27;20080;-78
2022/08/31 08:31:13;;;;;;;0.10;0.10;;;;;;;20.87;49.51;102406.75;5129153;28;20095;-78
2022/08/31 08:33:39;;;;;;;0.10;0.10;;;;;;;20.94;49.77;102404.72;5111967;27;20012;-81
2022/08/31 08:36:07;;;;;;;0.10;0.10;;;;;;;21.09;48.76;102411.31;5105608;27;20035;-80
2022/08/31 08:38:37;;;;;;;0.00;0.00;;;;;;;21.20;49.19;102410.88;5121414;27;20047;-81
2022/08/31 08:41:11;;;;;;;0.08;0.08;;;;;;;21.32;48.56;102411.28;5118641;27;20333;-79
2022/08/31 08:43:41;;;;;;;0.10;0.10;;;;;;;21.42;48.70;102405.50;5124872;27;20389;-79
2022/08/31 08:46:12;;;;;;;0.10;0.10;;;;;;;21.56;48.36;102400.44;5128024;27;20054;-86
2022/08/31 08:48:42;;;;;;;0.10;0.10;;;;;;;21.65;48.49;102402.75;5121161;27;20032;-80
2022/08/31 08:51:15;;;;;;;0.10;0.10;;;;;;;21.78;47.68;102399.53;5115776;27;20039;-79
2022/08/31 08:53:44;;;;;;;0.03;0.03;;;;;;;21.86;47.47;102405.50;5128639;27;20031;-79
2022/08/31 08:56:12;;;;;;;0.10;0.10;;;;;;;21.94;48.04;102399.75;5117396;27;20039;-79
2022/08/31 08:58:42;;;;;;;0.10;0.10;;;;;;;22.14;47.78;102404.28;5122651;27;20051;-78
2022/08/31 09:01:13;;;;;;;2.30;1.38;;;;;;;22.22;47.25;102412.91;5121168;27;20031;-78
2022/08/31 09:04:07;;;;;;;0.10;0.10;;;;;;;22.37;47.32;102411.38;5129721;27;20063;-79
2022/08/31 09:06:53;;;;;;;0.22;0.22;;;;;;;22.48;46.77;102405.50;5118724;27;20039;-79
2022/08/31 09:15:10;;;;;;;0.10;0.10;;;;;;;22.82;46.96;102412.03;5098206;27;20460;-76
2022/08/31 09:20:15;;;;;;;0.10;0.10;;;;;;;22.98;46.60;102416.72;5062634;28;20133;-79
2022/08/31 09:25:31;;;;;;;0.10;0.10;;;;;;;23.12;47.24;102408.81;5091979;27;20397;-79
2022/08/31 09:28:02;;;;;;;0.10;0.10;;;;;;;23.25;46.01;102410.03;5091361;28;20028;-77
2022/08/31 09:36:21;;;;;;;3.05;0.25;;;;;;;23.51;45.30;102405.13;5097209;27;20769;-76
2022/08/31 09:38:48;;;;;;;0.10;0.10;;;;;;;23.45;45.77;102394.63;5087129;28;20040;-76
2022/08/31 09:41:32;;;;;;;0.10;0.10;;;;;;;23.59;45.75;102402.06;5081958;28;20036;-76
2022/08/31 09:44:22;;;;;;;0.05;0.05;;;;;;;23.71;45.52;102401.44;5081064;28;20081;-76
2022/08/31 09:46:52;;;;;;;0.00;0.00;;;;;;;23.74;45.04;102405.81;5067848;28;20027;-76
2022/08/31 09:49:28;;;;;;;0.20;0.20;;;;;;;23.89;44.95;102398.75;5079014;28;20028;-76
2022/08/31 09:52:20;;;;;;;0.10;0.10;;;;;;;24.03;44.86;102401.63;5079335;28;20714;-76
2022/08/31 09:55:12;;;;;;;0.10;0.10;;;;;;;24.08;44.61;102398.69;5074325;28;20571;-76
2022/08/31 09:57:53;;;;;;;0.10;0.10;;;;;;;24.19;44.17;102401.69;5070147;28;20025;-75
2022/08/31 10:00:33;;;;;;;0.10;0.10;;;;;;;24.21;42.66;102404.31;5073898;28;20037;-75
2022/08/31 10:03:15;;;;;;;0.52;0.52;;;;;;;24.27;43.14;102395.00;5079659;28;20025;-76
2022/08/31 10:05:43;;;;;;;0.00;0.00;;;;;;;24.23;43.31;102403.25;5080379;28;20496;-76
2022/08/31 10:10:48;;;;;;;0.38;0.38;;;;;;;24.29;43.40;102401.19;5053351;28;20396;-74
2022/08/31 10:13:21;;;;;;;0.30;0.30;;;;;;;24.41;42.47;102392.41;5050871;28;20112;-74
2022/08/31 10:15:57;;;;;;;0.10;0.10;;;;;;;24.53;42.66;102388.16;5055580;28;20497;-75
2022/08/31 10:18:54;;;;;;;0.10;0.10;;;;;;;24.57;42.28;102383.44;5062454;28;20368;-74
2022/08/31 10:21:29;;;;;;;0.10;0.10;;;;;;;24.49;42.50;102387.44;5060186;28;20032;-76
2022/08/31 10:24:26;;;;;;;0.00;0.00;;;;;;;24.62;43.41;102379.50;5059054;28;20115;-75
2022/08/31 10:27:02;;;;;;;0.00;0.00;;;;;;;24.64;42.55;102374.03;5054460;28;20029;-75
2022/08/31 10:29:38;;;;;;;0.10;0.10;;;;;;;24.84;42.36;102390.06;5060301;28;20021;-75
2022/08/31 10:35:30;;;;;;;0.10;0.10;;;;;;;24.92;40.84;102375.22;5079135;27;20414;-74
2022/08/31 10:43:49;;;;;;;0.10;0.10;;;;;;;25.08;42.41;102370.66;5068210;28;20386;-74
2022/08/31 10:46:16;;;;;;;0.10;0.10;;;;;;;25.12;41.48;102358.69;5064471;28;20434;-74
2022/08/31 10:48:45;;;;;;;0.10;0.10;;;;;;;25.19;40.81;102361.91;5053929;28;20426;-74
2022/08/31 10:54:32;;;;;;;0.08;0.08;;;;;;;25.56;41.66;102358.88;5063135;28;20717;-74
2022/08/31 10:59:53;;;;;;;0.10;0.10;;;;;;;25.75;40.46;102356.81;5123360;27;20763;-74
2022/08/31 11:10:56;;;;;;;0.10;0.10;;;;;;;25.88;40.54;102356.06;5015231;27;20183;-74
2022/08/31 11:13:46;;;;;;;0.10;0.10;;;;;;;26.01;39.60;102354.34;5019146;28;20025;-74
2022/08/31 11:19:31;;;;;;;0.13;0.13;;;;;;;26.13;39.50;102356.34;5059873;28;20412;-75
2022/08/31 11:22:27;;;;;;;0.40;0.40;;;;;;;26.25;39.09;102349.25;5036980;28;20037;-74
2022/08/31 11:25:23;;;;;;;0.10;0.10;;;;;;;26.25;39.62;102342.97;5039974;28;20036;-74
2022/08/31 11:28:01;;;;;;;0.00;0.00;;;;;;;26.28;39.26;102348.19;5035976;28;20030;-74
2022/08/31 11:30:31;;;;;;;0.10;0.10;;;;;;;26.23;38.95;102353.03;5040497;28;20026;-74
2022/08/31 11:50:11;;;;;;;0.05;0.05;;;;;;;26.89;38.09;102315.31;5103386;27;20395;-74
2022/08/31 11:52:49;;;;;;;0.10;0.10;;;;;;;26.91;38.35;102319.69;5086177;28;20055;-74
2022/08/31 12:01:02;;;;;;;0.08;0.08;;;;;;;27.10;38.23;102318.47;5063244;28;20382;-74
2022/08/31 12:03:51;;;;;;;0.00;0.00;;;;;;;27.19;37.69;102311.53;5024198;28;20069;-74
2022/08/31 12:10:13;;;;;;;0.10;0.10;;;;;;;27.18;36.92;102307.94;5061991;28;20131;-74
2022/08/31 12:15:51;;;;;;;0.10;0.10;;;;;;;27.16;36.65;102306.31;5061042;28;20903;-74
2022/08/31 12:18:57;;;;;;;0.10;0.10;;;;;;;27.26;36.47;102291.94;5053612;28;20041;-74
2022/08/31 12:30:18;;;;;;;0.20;0.20;;;;;;;27.69;36.75;102290.88;5071581;27;20123;-74
2022/08/31 12:32:51;;;;;;;0.40;0.40;;;;;;;27.67;35.89;102278.34;5057638;28;20021;-74
2022/08/31 12:35:22;;;;;;;0.10;0.10;;;;;;;27.73;35.70;102277.91;5058276;28;20437;-74
2022/08/31 12:38:07;;;;;;;0.10;0.10;;;;;;;27.75;36.02;102276.81;5055891;28;20040;-74
2022/08/31 12:40:53;;;;;;;0.20;0.20;;;;;;;27.71;35.72;102272.56;5062675;28;20090;-74
2022/08/31 12:43:26;;;;;;;0.10;0.10;;;;;;;27.80;35.73;102268.31;5064859;28;20075;-74
2022/08/31 12:54:22;;;;;;;0.10;0.10;;;;;;;28.24;34.06;102260.69;5085161;27;20048;-74
2022/08/31 13:02:19;;;;;;;0.30;0.30;;;;;;;28.23;35.08;102267.13;5047539;28;20388;-74
2022/08/31 13:04:47;;;;;;;0.10;0.10;;;;;;;28.39;35.10;102261.41;5042554;28;20139;-74
2022/08/31 13:12:49;;;;;;;0.20;0.20;;;;;;;28.67;33.51;102246.59;5063134;28;20390;-74
2022/08/31 13:15:26;;;;;;;0.08;0.08;;;;;;;28.71;33.48;102241.78;5047796;28;20037;-74
2022/08/31 13:17:53;;;;;;;1.10;0.38;;;;;;;28.60;32.48;102228.97;5050696;28;20136;-74
2022/08/31 13:20:31;;;;;;;0.10;0.10;;;;;;;28.75;33.50;102237.00;5054571;28;20035;-74
2022/08/31 13:23:02;;;;;;;0.10;0.10;;;;;;;28.83;32.44;102235.41;5052368;28;20035;-75
2022/08/31 13:25:34;;;;;;;0.10;0.10;;;;;;;28.94;31.93;102242.78;5054146;28;20018;-75
2022/08/31 13:28:21;;;;;;;;;;;;;;;29.10;31.27;102245.22;5054140;28;20116;-74
2022/08/31 13:31:07;;;;;;;0.10;0.10;;;;;;;28.99;31.58;102231.53;5045699;28;19908;-74
2022/08/31 13:33:38;;;;;;;1.20;0.45;;;;;;;29.04;32.14;102232.91;5047917;28;20686;-74